Sonic Adventure (DX): Overall Rankings

Records: Times | Rings | Scores | Races | Bosses | Freestyle
Leaders: Times | Rings | Scores | Races | Bosses | Freestyle | Overall
Rank Order Asc Player Percent Points Date
1 Sonicspeedruner 98.3% 271 02-06-16
2 Gamepro011 98.2% 290 02-06-16
3 DarkPolarNight 96.2% 629 02-06-16
4 Jawzun 93.6% 1063 02-06-16
5 Dashjump 92.2% 1298 02-06-16
6 DarkspinesSonic 90.5% 1577 02-06-16
7 Avento128bits 90.2% 1635 02-06-16
8 ike6252 90.0% 1666 02-06-16
9 F-Man 88.2% 1962 02-06-16
10 HyperSonic7701 84.9% 2514 02-06-16
11 Coolfansonic 83.8% 2690 02-06-16
12 yoshifan 83.4% 2773 02-06-16
13 frankoredstrato 82.9% 2854 02-06-16
14 TheRealShadnic 82.0% 2992 02-06-16
15 francisco 81.9% 3008 02-06-16
16 Marth 81.6% 3063 02-06-16
17 InferSaime 80.4% 3269 02-06-16
18 PfoSonic 80.0% 3337 02-06-16
19 Paragod 79.5% 3414 02-06-16
20 THC98 78.5% 3590 02-06-16
21 Stefan 76.2% 3960 02-06-16
22 RPGnutter 74.0% 4333 02-06-16
23 bertin 74.0% 4341 02-06-16
24 sonicam 71.7% 4716 02-06-16
25 drminus 69.6% 5065 02-06-16
26 Combo 65.8% 5712 02-06-16
27 SkyLights 64.5% 5915 02-06-16
28 xXMegaManXx 63.8% 6045 02-06-16
29 Diamond 62.8% 6210 02-06-16
30 Dawid8404 62.4% 6265 02-06-16
31 OmegaDJ 60.4% 6609 02-06-16
32 GerbilSoft 60.4% 6610 02-06-16
33 Auriman1 60.3% 6621 02-06-16
34 magnum12 59.4% 6767 02-06-16
35 Thorn 57.4% 7115 02-06-16
36 P1 Pause 57.1% 7151 02-06-16
37 mike89 56.1% 7322 02-06-16
38 Groudon199 54.2% 7649 02-06-16
39 Dave Cramer 54.1% 7654 02-06-16
40 chainchumper 54.0% 7674 02-06-16
41 Parax 53.3% 7797 02-06-16
42 Shadow Jacky 53.0% 7849 02-06-16
43 Psymar 47.8% 8718 02-06-16
44 Chao_Fan 46.1% 8992 02-06-16
45 Arch 45.8% 9040 02-06-16
46 mauserman 45.5% 9099 02-06-16
47 Quartz 45.0% 9181 02-06-16
48 teamblackarms 44.0% 9347 02-06-16
49 Psyknux 43.6% 9418 02-06-16
50 James_Bertolli 43.1% 9489 02-06-16
51 NintenDan 42.8% 9546 02-06-16
52 Webber3000 42.2% 9646 02-06-16
53 Turbos 42.1% 9669 02-06-16
54 Ring Rush 41.8% 9709 02-06-16
55 Cream147 41.7% 9736 02-06-16
56 Fr3nZy 41.6% 9744 02-06-16
57 videogamemaster777 41.6% 9750 02-06-16
58 Siavash Tazari 41.2% 9808 02-06-16
59 buddychaos0415 40.8% 9881 02-06-16
60 SadisticMystic 40.0% 10008 02-06-16
61 eggFL 39.4% 10118 02-06-16
62 Redd 38.8% 10222 02-06-16
63 SB737 37.9% 10366 02-06-16
64 supersonic465 37.1% 10506 02-06-16
65 supersonicfan 36.7% 10568 02-06-16
66 FuzZerd 35.5% 10760 02-06-16
67 elecmouse101 34.8% 10881 02-06-16
68 Austinf 33.6% 11076 02-06-16
69 metanightmare22 33.4% 11118 02-06-16
70 Aitamen 33.1% 11168 02-06-16
71 dabestgamer 33.0% 11180 02-06-16
72 Cyan Ryan 32.9% 11200 02-06-16
73 MiStEr_ShAoLiN 32.9% 11201 02-06-16
74 Andrea Ritsu 31.9% 11363 02-06-16
75 itsPersonnal 31.9% 11376 02-06-16
76 Cybrax 31.0% 11517 02-06-16
77 SilvertheAlmighty 30.8% 11547 02-06-16
78 danieldude 30.7% 11560 02-06-16
79 VMU Player Banned 28.9% 11863 02-06-16
80 Staf 28.6% 11923 02-06-16
81 Omega Rafael Santos 28.5% 11932 02-06-16
82 The T 28.2% 11983 02-06-16
83 EngiNerd 27.9% 12036 02-06-16
84 lordmetalsonic 27.3% 12129 02-06-16
85 Hipertails12 26.9% 12211 02-06-16
86 welldooder64 26.8% 12226 02-06-16
87 Sondow 26.5% 12268 02-06-16
88 GreatStar 26.5% 12275 02-06-16
89 The Great Lord Mick 26.3% 12301 02-06-16
90 Mastakirby 26.2% 12324 02-06-16
91 LinksDarkArrows 26.1% 12331 02-06-16
92 Nimrod 25.8% 12386 02-06-16
93 Skylace 25.2% 12495 02-06-16
94 Rolken 23.7% 12730 02-06-16
95 Xia 22.1% 13003 02-06-16
96 Kogen Player Banned 22.1% 13011 02-06-16
97 Spinballwizard 21.9% 13039 02-06-16
98 a_moustache 21.8% 13062 02-06-16
99 Cutiefox 21.4% 13115 02-06-16
99 Don 21.4% 13115 02-06-16
101 f0rever_zer0 21.4% 13118 02-06-16
102 Twilisailor 21.4% 13119 02-06-16
103 Miles9999 21.2% 13147 02-06-16
104 Game_Complete 21.2% 13162 02-06-16
105 andres430 20.8% 13228 02-06-16
106 Cruizer 20.6% 13262 02-06-16
107 iSonicKid2K 20.4% 13289 02-06-16
108 SADXTryHard 19.9% 13365 02-06-16
109 GarnetPrincess 19.6% 13415 02-06-16
110 AxlThunder 18.8% 13552 02-06-16
111 knuckles_sonic8 18.7% 13566 02-06-16
112 Team_Yoshi 18.2% 13655 02-06-16
113 KinkyCadence 18.1% 13666 02-06-16
114 The Knuckles Chao 18.1% 13678 02-06-16
115 Termon 17.8% 13721 02-06-16
116 FoxBoy 17.7% 13734 02-06-16
117 LittleBigness 17.7% 13744 02-06-16
118 SonicWinDX 17.5% 13778 02-06-16
119 Drakodan 16.7% 13900 02-06-16
120 Sonic Singularity 15.7% 14077 02-06-16
121 Pokemonmaster888 15.6% 14086 02-06-16
122 BigAL49 14.6% 14256 02-06-16
123 MPit08 14.4% 14289 02-06-16
123 SilverSonic 14.4% 14289 02-06-16
125 WeegeeZV 14.2% 14328 02-06-16
126 Mo Player Banned 14.1% 14346 02-06-16
127 HyperSonic64 13.5% 14436 02-06-16
128 Cod4Scopes 13.5% 14438 02-06-16
129 booo95 13.5% 14447 02-06-16
130 Jerzia 13.4% 14455 02-06-16
131 Chawkk 13.2% 14489 02-06-16
132 paulie9990 13.1% 14514 02-06-16
133 SuperSonic101 13.0% 14522 02-06-16
134 Hunters13 13.0% 14533 02-06-16
135 Maxinfamily 12.8% 14552 02-06-16
136 Kanimayo_Jp 12.5% 14604 02-06-16
137 PsyBorg 12.5% 14611 02-06-16
138 Flying Fox 12.4% 14621 02-06-16
139 BrokenArthritis 12.4% 14627 02-06-16
140 LilZero 12.3% 14635 02-06-16
141 koinu93 11.9% 14703 02-06-16
142 sonicspeed 11.9% 14716 02-06-16
143 Therio 11.8% 14728 02-06-16
144 douglas 11.8% 14730 02-06-16
145 thewaytodawnnn 11.3% 14810 02-06-16
146 Matt_TY 11.3% 14817 02-06-16
147 Cooljay 10.7% 14909 02-06-16
148 joecoolgames 10.6% 14925 02-06-16
149 SeaWolf 10.6% 14930 02-06-16
150 videogamer1014 10.2% 14985 02-06-16
151 welshmoose05 10.0% 15032 02-06-16
152 TFEC Headshot 9.9% 15035 02-06-16
153 crazy1993 9.8% 15065 02-06-16
154 OddCook 9.7% 15081 02-06-16
155 Mcshuggets 9.6% 15095 02-06-16
156 niscool 9.3% 15142 02-06-16
157 imazor017 9.2% 15152 02-06-16
158 Mariobutch 9.2% 15160 02-06-16
159 nuckrieg 9.1% 15179 02-06-16
160 SonicAD 9.0% 15191 02-06-16
161 SirTobbii 8.9% 15214 02-06-16
162 Shadowthegreat 8.8% 15224 02-06-16
163 superjupi 8.8% 15228 02-06-16
164 iarebored 8.5% 15274 02-06-16
165 SaviourDC 8.5% 15280 02-06-16
166 sonamyfan666 8.5% 15285 02-06-16
167 SonicKnuckles 8.3% 15311 02-06-16
168 Werey 8.3% 15315 02-06-16
169 adf 8.0% 15362 02-06-16
170 Megaman EXE565 7.8% 15397 02-06-16
171 ArcticDragon 7.7% 15403 02-06-16
172 Platformer 7.4% 15454 02-06-16
173 FocusSight64 7.4% 15465 02-06-16
174 wheatrich 7.3% 15476 02-06-16
175 ethmar 7.3% 15483 02-06-16
176 timpkmn89 7.2% 15487 02-06-16
177 Swift Hobo 7.2% 15488 02-06-16
178 Rickyman48 7.1% 15514 02-06-16
179 KitsuneYamaro 6.8% 15558 02-06-16
180 Triseena 6.8% 15569 02-06-16
181 CyberShadow 6.5% 15606 02-06-16
182 slade23 6.4% 15620 02-06-16
183 Starlight Sable 6.4% 15626 02-06-16
184 dShadow 6.3% 15637 02-06-16
185 IsisDazs 6.3% 15647 02-06-16
186 BlankTH 6.0% 15686 02-06-16
187 Monkeh 5.9% 15716 02-06-16
188 Richied 5.7% 15742 02-06-16
189 DaDude 5.6% 15754 02-06-16
190 SonicU260 5.6% 15756 02-06-16
191 sonicd5 5.5% 15772 02-06-16
192 Zip 5.5% 15782 02-06-16
193 VeritasDL 5.2% 15833 02-06-16
194 tal39h 5.1% 15843 02-06-16
195 Kirbymon30 5.1% 15845 02-06-16
196 soniccoloursunleashed 4.8% 15889 02-06-16
197 Drflash55 4.8% 15896 02-06-16
198 Bass 4.7% 15913 02-06-16
199 Yish 4.7% 15916 02-06-16
200 neaolas 4.6% 15923 02-06-16
201 UninspiredUsername 4.6% 15935 02-06-16
202 Sonicsuperstar1 4.6% 15936 02-06-16
202 zapp 4.6% 15936 02-06-16
204 superiorsonic 4.5% 15943 02-06-16
205 SuperBlitzCraig 4.5% 15948 02-06-16
206 gamefreak1292 4.4% 15955 02-06-16
207 Badlex727 4.4% 15956 02-06-16
208 Chaos_Overlord 4.1% 16008 02-06-16
209 TakaRikka 4.0% 16024 02-06-16
210 Valfore 3.9% 16038 02-06-16
211 ShinigamiMachine 3.8% 16058 02-06-16
212 Regano1000 3.7% 16072 02-06-16
213 MK 3.6% 16092 02-06-16
214 Ace747 3.5% 16105 02-06-16
215 Illidan 3.2% 16159 02-06-16
216 HHNNBBHHN 3.2% 16167 02-06-16
217 Venick409 3.1% 16178 02-06-16
218 Brian_pso 3.1% 16181 02-06-16
219 Sithwarrior26 3.1% 16185 02-06-16
220 Egor305 3.0% 16202 02-06-16
221 ingx24 2.9% 16206 02-06-16
222 TheChaosEmeraIds 2.9% 16212 02-06-16
223 SkyBon 2.9% 16217 02-06-16
224 Nickson98 2.9% 16218 02-06-16
225 FSSRandomvids 2.8% 16234 02-06-16
226 Fozer 2.8% 16237 02-06-16
227 sonic29887 2.7% 16247 02-06-16
228 Colomb_30 2.7% 16253 02-06-16
229 dekki1234 2.6% 16257 02-06-16
230 TheUltraBlur 2.6% 16258 02-06-16
231 Aiko 2.6% 16260 02-06-16
232 1stKirbyever 2.6% 16266 02-06-16
233 Th4tN1nj4Turtl3 2.3% 16306 02-06-16
234 Cort_pso 2.3% 16308 02-06-16
235 Doom-9 2.3% 16315 02-06-16
236 nman36 2.3% 16318 02-06-16
237 ieatatsonic 2.2% 16322 02-06-16
238 Mariosonic15 2.2% 16324 02-06-16
239 SonataSpinDash 2.2% 16331 02-06-16
240 MStitomix 2.1% 16339 02-06-16
241 HermitHelmet 2.1% 16345 02-06-16
241 SuperSonic71087 2.1% 16345 02-06-16
243 Got4n 2.0% 16358 02-06-16
244 Artie 2.0% 16364 02-06-16
245 Jose_15 2.0% 16369 02-06-16
245 Questionguy555 2.0% 16369 02-06-16
247 SuperSonicfan9595 1.8% 16390 02-06-16
248 djmat 1.8% 16391 02-06-16
249 sonicandamy 1.7% 16405 02-06-16
250 LancexExWx 1.7% 16414 02-06-16
251 son1cgu1tar 1.7% 16418 02-06-16
252 Heroes_Hater 1.7% 16419 02-06-16
252 Paixii 1.7% 16419 02-06-16
254 BallzeH 1.6% 16435 02-06-16
255 Mankster101 1.5% 16443 02-06-16
256 BecauseWarAnvil 1.5% 16446 02-06-16
256 Jamixesa 1.5% 16446 02-06-16
258 Crydio 1.5% 16453 02-06-16
259 SpiritDragon1995 1.4% 16460 02-06-16
260 Shanekilz 1.4% 16463 02-06-16
261 ReuelBrony 1.4% 16466 02-06-16
262 stanski 1.3% 16472 02-06-16
263 MarewBFN 1.3% 16475 02-06-16
264 Vicklaw 1.3% 16480 02-06-16
265 Sonique Hedgehog 1.3% 16482 02-06-16
266 p0ker 1.2% 16488 02-06-16
267 Blue Infamy 1.2% 16490 02-06-16
268 ErrortheCucco 1.2% 16500 02-06-16
269 Rikum22 1.2% 16503 02-06-16
270 Arthas 1.1% 16505 02-06-16
271 sonic1001 1.1% 16511 02-06-16
272 WingedInsignia 1.1% 16516 02-06-16
273 AJSIV 1.1% 16518 02-06-16
273 syco1098 1.1% 16518 02-06-16
275 Sonic the Hedgehod16 1.0% 16523 02-06-16
276 sonicfan9 1.0% 16529 02-06-16
277 Calfd 1.0% 16532 02-06-16
278 BlackArmsShadow 0.9% 16541 02-06-16
279 themachoman202 0.9% 16543 02-06-16
280 shadowblast63 Player Banned 0.9% 16551 02-06-16
281 Greham Adelphis 0.9% 16552 02-06-16
282 Ben1502 0.9% 16553 02-06-16
282 Fivavoa 0.9% 16553 02-06-16
282 Mr. Jones 0.9% 16553 02-06-16
285 MastaToken 0.9% 16554 02-06-16
286 arcfx1985 0.8% 16556 02-06-16
287 darkstarblaze 0.8% 16557 02-06-16
288 ptorflaxendrosis 0.8% 16558 02-06-16
289 Gvozdevik 0.8% 16562 02-06-16
290 FlandreScarlet9999vr 0.8% 16563 02-06-16
290 Knuckles 0.8% 16563 02-06-16
292 Zeldocto 0.8% 16566 02-06-16
293 BeeAwwb 0.7% 16572 02-06-16
294 KaM Mark MaK 0.7% 16573 02-06-16
295 ShadouZaHejjihoggu 0.7% 16578 02-06-16
296 Sonic62 0.7% 16584 02-06-16
297 Sonic The Star 0.7% 16586 02-06-16
298 darkersupershadic 0.7% 16587 02-06-16
299 dragondragon18 0.6% 16589 02-06-16
300 SonicK100 0.6% 16590 02-06-16
301 Shadygamerfreak 0.6% 16591 02-06-16
301 Sogeking 0.6% 16591 02-06-16
303 Grady219 0.6% 16593 02-06-16
303 Sarger001 0.6% 16593 02-06-16
305 Jawaah 0.6% 16597 02-06-16
306 Antek 0.6% 16603 02-06-16
307 Klaus 0.5% 16605 02-06-16
307 SilverK 0.5% 16605 02-06-16
309 SpinDashMaster 0.5% 16609 02-06-16
310 BioShadow 0.5% 16610 02-06-16
311 Videogamer123 0.5% 16613 02-06-16
312 isaihtb11 0.4% 16629 02-06-16
312 oTaiIilLsS 0.4% 16629 02-06-16
314 OhNoes! 0.4% 16631 02-06-16
315 zaktu40 0.4% 16632 02-06-16
316 Mad Andy 0.4% 16633 02-06-16
317 gaara1234 0.4% 16635 02-06-16
317 S-MS32X-S 0.4% 16635 02-06-16
319 gamed00d 0.4% 16638 02-06-16
320 Mister_Slick 0.3% 16646 02-06-16
321 Sonic06Fan 0.3% 16650 02-06-16
322 Rush Hero 0.3% 16651 02-06-16
323 SonicMega167 0.2% 16655 02-06-16
324 Iwannabelink 0.2% 16657 02-06-16
325 sonknuck23 0.2% 16660 02-06-16
326 DanielTheFalcon 0.2% 16667 02-06-16
326 gamer1245 0.2% 16667 02-06-16
328 Burningskull123 0.1% 16674 02-06-16
329 Sonicontherun 0.1% 16685 02-06-16
330 Lil_Dude 0.0% 16689 02-06-16
331 antiwwe 0.0% 16691 02-06-16
332 Cbwade15 0.0% 16695 02-06-16
332 Genuine Hedgehog 0.0% 16695 02-06-16
334 Tyrouble 0.0% 16698 02-06-16
335 MegabombBlade 0.0% 16705 02-06-16
335 neji_hyuuga 0.0% 16705 02-06-16
335 Over 0.0% 16705 02-06-16
335 sdj6707 Player Banned 0.0% 16705 02-06-16
335 Tran Sonic Fan Player Banned 0.0% 16705 02-06-16

This page is using the New Data Table System. [FUTURE]

Game ID: 3 | Category ID: 10
Hits: 65,946 | Hits This Month: 103 | DB Calls: 21 | Mem Usage: 5.46 MB | Time: 0.33s | Printable

The Sonic Center v3.9
Copyright 2003-2011 by The Sonic Center Team.